sensor_id;sensor_type;location;lat;lon;timestamp;P1;durP1;ratioP1;P2;durP2;ratioP2
74215;SDS011;62577;53.378;-2.914;2022-08-01T00:01:22;4.35;;;1.90;;
74215;SDS011;62577;53.378;-2.914;2022-08-01T00:03:48;5.15;;;2.08;;
74215;SDS011;62577;53.378;-2.914;2022-08-01T00:06:15;3.25;;;1.58;;
74215;SDS011;62577;53.378;-2.914;2022-08-01T00:08:41;3.65;;;1.88;;
74215;SDS011;62577;53.378;-2.914;2022-08-01T00:11:07;6.68;;;1.80;;
74215;SDS011;62577;53.378;-2.914;2022-08-01T00:13:34;4.18;;;1.55;;
74215;SDS011;62577;53.378;-2.914;2022-08-01T00:16:00;5.25;;;2.13;;
74215;SDS011;62577;53.378;-2.914;2022-08-01T00:18:26;4.40;;;2.05;;
74215;SDS011;62577;53.378;-2.914;2022-08-01T00:20:52;8.00;;;2.05;;
74215;SDS011;62577;53.378;-2.914;2022-08-01T00:23:18;5.40;;;2.13;;
74215;SDS011;62577;53.378;-2.914;2022-08-01T00:25:44;6.07;;;3.15;;
74215;SDS011;62577;53.378;-2.914;2022-08-01T00:28:10;3.75;;;1.85;;
74215;SDS011;62577;53.378;-2.914;2022-08-01T00:30:38;4.95;;;1.67;;
74215;SDS011;62577;53.378;-2.914;2022-08-01T00:33:04;4.95;;;2.35;;
74215;SDS011;62577;53.378;-2.914;2022-08-01T00:35:30;2.50;;;1.90;;
74215;SDS011;62577;53.378;-2.914;2022-08-01T00:37:56;4.20;;;2.03;;
74215;SDS011;62577;53.378;-2.914;2022-08-01T00:40:22;4.30;;;2.28;;
74215;SDS011;62577;53.378;-2.914;2022-08-01T00:42:48;3.10;;;1.73;;
74215;SDS011;62577;53.378;-2.914;2022-08-01T00:45:14;6.28;;;2.17;;
74215;SDS011;62577;53.378;-2.914;2022-08-01T00:47:40;4.95;;;2.20;;
74215;SDS011;62577;53.378;-2.914;2022-08-01T00:50:06;7.80;;;1.90;;
74215;SDS011;62577;53.378;-2.914;2022-08-01T00:52:33;2.50;;;1.58;;
74215;SDS011;62577;53.378;-2.914;2022-08-01T00:54:59;5.55;;;2.35;;
74215;SDS011;62577;53.378;-2.914;2022-08-01T00:57:25;5.70;;;2.05;;
74215;SDS011;62577;53.378;-2.914;2022-08-01T00:59:52;4.53;;;1.70;;
74215;SDS011;62577;53.378;-2.914;2022-08-01T01:02:18;3.38;;;2.28;;
74215;SDS011;62577;53.378;-2.914;2022-08-01T01:04:44;5.57;;;2.10;;
74215;SDS011;62577;53.378;-2.914;2022-08-01T01:07:19;5.72;;;2.10;;
74215;SDS011;62577;53.378;-2.914;2022-08-01T01:09:50;2.83;;;1.88;;
74215;SDS011;62577;53.378;-2.914;2022-08-01T01:12:27;6.35;;;2.20;;
74215;SDS011;62577;53.378;-2.914;2022-08-01T01:17:39;5.78;;;2.20;;
74215;SDS011;62577;53.378;-2.914;2022-08-01T01:20:07;5.25;;;2.20;;
74215;SDS011;62577;53.378;-2.914;2022-08-01T01:22:42;4.72;;;1.77;;
74215;SDS011;62577;53.378;-2.914;2022-08-01T01:30:13;3.95;;;2.17;;
74215;SDS011;62577;53.378;-2.914;2022-08-01T01:32:41;4.22;;;1.92;;
74215;SDS011;62577;53.378;-2.914;2022-08-01T01:35:09;2.90;;;1.60;;
74215;SDS011;62577;53.378;-2.914;2022-08-01T01:37:37;4.43;;;2.05;;
74215;SDS011;62577;53.378;-2.914;2022-08-01T01:40:05;3.95;;;2.10;;
74215;SDS011;62577;53.378;-2.914;2022-08-01T01:42:31;4.32;;;2.33;;
74215;SDS011;62577;53.378;-2.914;2022-08-01T01:44:57;4.95;;;1.70;;
74215;SDS011;62577;53.378;-2.914;2022-08-01T01:47:24;5.22;;;1.80;;
74215;SDS011;62577;53.378;-2.914;2022-08-01T01:49:50;4.75;;;1.80;;
74215;SDS011;62577;53.378;-2.914;2022-08-01T01:52:17;6.82;;;2.50;;
74215;SDS011;62577;53.378;-2.914;2022-08-01T01:54:45;6.20;;;1.83;;
74215;SDS011;62577;53.378;-2.914;2022-08-01T01:57:12;4.38;;;2.08;;
74215;SDS011;62577;53.378;-2.914;2022-08-01T01:59:38;4.22;;;2.00;;
74215;SDS011;62577;53.378;-2.914;2022-08-01T02:02:05;6.13;;;1.83;;
74215;SDS011;62577;53.378;-2.914;2022-08-01T02:04:32;7.50;;;1.83;;
74215;SDS011;62577;53.378;-2.914;2022-08-01T02:07:01;5.10;;;2.20;;
74215;SDS011;62577;53.378;-2.914;2022-08-01T02:09:27;3.28;;;2.00;;
74215;SDS011;62577;53.378;-2.914;2022-08-01T02:11:53;6.18;;;2.38;;
74215;SDS011;62577;53.378;-2.914;2022-08-01T02:14:20;3.55;;;1.92;;
74215;SDS011;62577;53.378;-2.914;2022-08-01T02:16:49;5.18;;;1.80;;
74215;SDS011;62577;53.378;-2.914;2022-08-01T02:19:18;4.88;;;2.28;;
74215;SDS011;62577;53.378;-2.914;2022-08-01T02:21:46;3.63;;;2.47;;
74215;SDS011;62577;53.378;-2.914;2022-08-01T02:24:14;2.78;;;1.80;;
74215;SDS011;62577;53.378;-2.914;2022-08-01T02:26:44;4.68;;;2.20;;
74215;SDS011;62577;53.378;-2.914;2022-08-01T02:29:13;6.55;;;2.00;;
74215;SDS011;62577;53.378;-2.914;2022-08-01T02:31:41;2.85;;;1.83;;
74215;SDS011;62577;53.378;-2.914;2022-08-01T02:34:10;2.78;;;1.67;;
74215;SDS011;62577;53.378;-2.914;2022-08-01T02:36:37;4.35;;;1.77;;
74215;SDS011;62577;53.378;-2.914;2022-08-01T02:39:07;3.45;;;1.95;;
74215;SDS011;62577;53.378;-2.914;2022-08-01T02:41:35;5.97;;;2.30;;
74215;SDS011;62577;53.378;-2.914;2022-08-01T02:44:04;3.90;;;1.70;;
74215;SDS011;62577;53.378;-2.914;2022-08-01T02:46:35;4.05;;;2.20;;
74215;SDS011;62577;53.378;-2.914;2022-08-01T02:49:03;4.22;;;2.08;;
74215;SDS011;62577;53.378;-2.914;2022-08-01T02:51:30;3.85;;;1.77;;
74215;SDS011;62577;53.378;-2.914;2022-08-01T02:53:56;5.30;;;1.48;;
74215;SDS011;62577;53.378;-2.914;2022-08-01T02:56:23;4.38;;;1.90;;
74215;SDS011;62577;53.378;-2.914;2022-08-01T02:58:59;7.03;;;1.75;;
74215;SDS011;62577;53.378;-2.914;2022-08-01T03:01:25;5.00;;;2.80;;
74215;SDS011;62577;53.378;-2.914;2022-08-01T03:03:51;3.63;;;2.08;;
74215;SDS011;62577;53.378;-2.914;2022-08-01T03:06:17;2.85;;;1.90;;
74215;SDS011;62577;53.378;-2.914;2022-08-01T03:08:43;3.30;;;1.73;;
74215;SDS011;62577;53.378;-2.914;2022-08-01T03:11:10;4.57;;;1.90;;
74215;SDS011;62577;53.378;-2.914;2022-08-01T03:13:37;5.20;;;2.63;;
74215;SDS011;62577;53.378;-2.914;2022-08-01T03:16:04;8.00;;;2.40;;
74215;SDS011;62577;53.378;-2.914;2022-08-01T03:18:30;5.50;;;2.15;;
74215;SDS011;62577;53.378;-2.914;2022-08-01T03:20:57;3.67;;;2.10;;
74215;SDS011;62577;53.378;-2.914;2022-08-01T03:23:24;4.20;;;2.00;;
74215;SDS011;62577;53.378;-2.914;2022-08-01T03:25:51;6.43;;;2.08;;
74215;SDS011;62577;53.378;-2.914;2022-08-01T03:28:18;3.15;;;1.88;;
74215;SDS011;62577;53.378;-2.914;2022-08-01T03:30:45;4.22;;;2.03;;
74215;SDS011;62577;53.378;-2.914;2022-08-01T03:33:12;3.88;;;1.95;;
74215;SDS011;62577;53.378;-2.914;2022-08-01T03:35:46;4.53;;;2.17;;
74215;SDS011;62577;53.378;-2.914;2022-08-01T03:38:13;4.57;;;2.22;;
74215;SDS011;62577;53.378;-2.914;2022-08-01T03:41:02;3.25;;;1.50;;
74215;SDS011;62577;53.378;-2.914;2022-08-01T03:43:30;3.65;;;1.75;;
74215;SDS011;62577;53.378;-2.914;2022-08-01T03:46:01;4.72;;;2.33;;
74215;SDS011;62577;53.378;-2.914;2022-08-01T03:48:29;6.82;;;2.47;;
74215;SDS011;62577;53.378;-2.914;2022-08-01T03:50:59;5.22;;;2.50;;
74215;SDS011;62577;53.378;-2.914;2022-08-01T03:53:26;5.45;;;2.10;;
74215;SDS011;62577;53.378;-2.914;2022-08-01T03:55:54;5.38;;;1.95;;
74215;SDS011;62577;53.378;-2.914;2022-08-01T03:58:21;5.72;;;2.42;;
74215;SDS011;62577;53.378;-2.914;2022-08-01T04:00:48;5.95;;;2.33;;
74215;SDS011;62577;53.378;-2.914;2022-08-01T04:03:14;7.35;;;2.33;;
74215;SDS011;62577;53.378;-2.914;2022-08-01T04:05:41;3.42;;;1.75;;
74215;SDS011;62577;53.378;-2.914;2022-08-01T04:08:07;3.80;;;2.15;;
74215;SDS011;62577;53.378;-2.914;2022-08-01T04:10:33;4.90;;;2.40;;
74215;SDS011;62577;53.378;-2.914;2022-08-01T04:13:00;3.05;;;1.70;;
74215;SDS011;62577;53.378;-2.914;2022-08-01T04:15:26;4.88;;;2.28;;
74215;SDS011;62577;53.378;-2.914;2022-08-01T04:17:52;4.38;;;2.70;;
74215;SDS011;62577;53.378;-2.914;2022-08-01T04:20:19;4.20;;;2.08;;
74215;SDS011;62577;53.378;-2.914;2022-08-01T04:22:45;3.40;;;2.05;;
74215;SDS011;62577;53.378;-2.914;2022-08-01T04:25:17;3.83;;;2.58;;
74215;SDS011;62577;53.378;-2.914;2022-08-01T04:27:46;5.88;;;2.30;;
74215;SDS011;62577;53.378;-2.914;2022-08-01T04:30:13;5.07;;;2.38;;
74215;SDS011;62577;53.378;-2.914;2022-08-01T04:32:40;8.52;;;2.58;;
74215;SDS011;62577;53.378;-2.914;2022-08-01T04:35:09;4.30;;;2.50;;
74215;SDS011;62577;53.378;-2.914;2022-08-01T04:37:37;4.90;;;2.55;;
74215;SDS011;62577;53.378;-2.914;2022-08-01T04:40:05;4.40;;;2.13;;
74215;SDS011;62577;53.378;-2.914;2022-08-01T04:42:32;7.30;;;2.47;;
74215;SDS011;62577;53.378;-2.914;2022-08-01T04:44:58;3.92;;;2.20;;
74215;SDS011;62577;53.378;-2.914;2022-08-01T04:47:25;5.20;;;1.80;;
74215;SDS011;62577;53.378;-2.914;2022-08-01T04:49:51;5.07;;;1.70;;
74215;SDS011;62577;53.378;-2.914;2022-08-01T04:52:18;4.35;;;1.50;;
74215;SDS011;62577;53.378;-2.914;2022-08-01T04:54:45;5.70;;;1.88;;
74215;SDS011;62577;53.378;-2.914;2022-08-01T04:57:11;4.28;;;1.60;;
74215;SDS011;62577;53.378;-2.914;2022-08-01T04:59:38;3.55;;;1.63;;
74215;SDS011;62577;53.378;-2.914;2022-08-01T05:02:08;2.97;;;1.85;;
74215;SDS011;62577;53.378;-2.914;2022-08-01T05:04:35;3.28;;;1.25;;
74215;SDS011;62577;53.378;-2.914;2022-08-01T05:07:01;2.20;;;1.73;;
74215;SDS011;62577;53.378;-2.914;2022-08-01T05:09:27;3.83;;;2.10;;
74215;SDS011;62577;53.378;-2.914;2022-08-01T05:11:53;4.20;;;2.00;;
74215;SDS011;62577;53.378;-2.914;2022-08-01T05:14:19;3.72;;;1.70;;
74215;SDS011;62577;53.378;-2.914;2022-08-01T05:16:46;3.58;;;1.58;;
74215;SDS011;62577;53.378;-2.914;2022-08-01T05:19:12;4.35;;;1.70;;
74215;SDS011;62577;53.378;-2.914;2022-08-01T05:21:38;5.53;;;1.92;;
74215;SDS011;62577;53.378;-2.914;2022-08-01T05:24:04;4.47;;;1.80;;
74215;SDS011;62577;53.378;-2.914;2022-08-01T05:26:30;4.05;;;1.67;;
74215;SDS011;62577;53.378;-2.914;2022-08-01T05:28:57;6.35;;;1.92;;
74215;SDS011;62577;53.378;-2.914;2022-08-01T05:31:23;2.92;;;2.00;;
74215;SDS011;62577;53.378;-2.914;2022-08-01T05:33:49;4.18;;;2.08;;
74215;SDS011;62577;53.378;-2.914;2022-08-01T05:36:15;3.83;;;1.92;;
74215;SDS011;62577;53.378;-2.914;2022-08-01T05:38:41;5.07;;;2.00;;
74215;SDS011;62577;53.378;-2.914;2022-08-01T05:41:07;4.05;;;2.00;;
74215;SDS011;62577;53.378;-2.914;2022-08-01T05:43:33;3.85;;;1.90;;
74215;SDS011;62577;53.378;-2.914;2022-08-01T05:45:59;3.20;;;1.85;;
74215;SDS011;62577;53.378;-2.914;2022-08-01T05:48:25;4.55;;;2.08;;
74215;SDS011;62577;53.378;-2.914;2022-08-01T05:50:52;5.53;;;2.35;;
74215;SDS011;62577;53.378;-2.914;2022-08-01T05:53:18;4.38;;;2.10;;
74215;SDS011;62577;53.378;-2.914;2022-08-01T05:55:44;3.38;;;2.15;;
74215;SDS011;62577;53.378;-2.914;2022-08-01T05:58:10;8.85;;;2.38;;
74215;SDS011;62577;53.378;-2.914;2022-08-01T06:00:36;4.45;;;2.47;;
74215;SDS011;62577;53.378;-2.914;2022-08-01T06:03:03;4.68;;;2.40;;
74215;SDS011;62577;53.378;-2.914;2022-08-01T06:05:29;5.00;;;2.70;;
74215;SDS011;62577;53.378;-2.914;2022-08-01T06:07:55;6.85;;;2.72;;
74215;SDS011;62577;53.378;-2.914;2022-08-01T06:10:21;5.72;;;2.95;;
74215;SDS011;62577;53.378;-2.914;2022-08-01T06:12:47;4.15;;;3.00;;
74215;SDS011;62577;53.378;-2.914;2022-08-01T06:15:13;3.75;;;2.35;;
74215;SDS011;62577;53.378;-2.914;2022-08-01T06:17:39;4.97;;;2.17;;
74215;SDS011;62577;53.378;-2.914;2022-08-01T06:20:06;5.72;;;2.60;;
74215;SDS011;62577;53.378;-2.914;2022-08-01T06:22:32;4.88;;;2.50;;
74215;SDS011;62577;53.378;-2.914;2022-08-01T06:24:58;5.50;;;2.15;;
74215;SDS011;62577;53.378;-2.914;2022-08-01T06:27:24;5.80;;;1.85;;
74215;SDS011;62577;53.378;-2.914;2022-08-01T06:29:51;3.35;;;1.70;;
74215;SDS011;62577;53.378;-2.914;2022-08-01T06:32:18;6.47;;;1.85;;
74215;SDS011;62577;53.378;-2.914;2022-08-01T06:34:44;3.55;;;1.83;;
74215;SDS011;62577;53.378;-2.914;2022-08-01T06:37:10;4.57;;;1.95;;
74215;SDS011;62577;53.378;-2.914;2022-08-01T06:39:38;3.35;;;1.40;;
74215;SDS011;62577;53.378;-2.914;2022-08-01T06:42:04;5.75;;;1.52;;
74215;SDS011;62577;53.378;-2.914;2022-08-01T06:44:31;5.50;;;1.85;;
74215;SDS011;62577;53.378;-2.914;2022-08-01T06:46:57;4.53;;;2.00;;
74215;SDS011;62577;53.378;-2.914;2022-08-01T06:49:25;4.90;;;1.90;;
74215;SDS011;62577;53.378;-2.914;2022-08-01T06:51:52;4.88;;;2.17;;
74215;SDS011;62577;53.378;-2.914;2022-08-01T06:54:18;6.65;;;2.67;;
74215;SDS011;62577;53.378;-2.914;2022-08-01T06:56:44;5.38;;;2.47;;
74215;SDS011;62577;53.378;-2.914;2022-08-01T06:59:10;5.75;;;2.38;;
74215;SDS011;62577;53.378;-2.914;2022-08-01T07:01:36;4.80;;;2.38;;
74215;SDS011;62577;53.378;-2.914;2022-08-01T07:04:02;3.97;;;2.40;;
74215;SDS011;62577;53.378;-2.914;2022-08-01T07:06:28;4.25;;;2.70;;
74215;SDS011;62577;53.378;-2.914;2022-08-01T07:08:54;3.83;;;1.92;;
74215;SDS011;62577;53.378;-2.914;2022-08-01T07:11:21;5.43;;;2.53;;
74215;SDS011;62577;53.378;-2.914;2022-08-01T07:13:47;4.57;;;2.58;;
74215;SDS011;62577;53.378;-2.914;2022-08-01T07:16:13;3.67;;;1.95;;
74215;SDS011;62577;53.378;-2.914;2022-08-01T07:18:39;3.40;;;2.22;;
74215;SDS011;62577;53.378;-2.914;2022-08-01T07:21:05;3.75;;;2.17;;
74215;SDS011;62577;53.378;-2.914;2022-08-01T07:23:31;4.15;;;2.13;;
74215;SDS011;62577;53.378;-2.914;2022-08-01T07:25:57;3.95;;;2.33;;
74215;SDS011;62577;53.378;-2.914;2022-08-01T07:28:26;3.17;;;1.90;;
74215;SDS011;62577;53.378;-2.914;2022-08-01T07:30:52;6.78;;;2.17;;
74215;SDS011;62577;53.378;-2.914;2022-08-01T07:33:18;5.95;;;2.40;;
74215;SDS011;62577;53.378;-2.914;2022-08-01T07:35:44;4.10;;;1.92;;
74215;SDS011;62577;53.378;-2.914;2022-08-01T07:38:10;4.68;;;1.80;;
74215;SDS011;62577;53.378;-2.914;2022-08-01T07:40:36;5.72;;;2.40;;
74215;SDS011;62577;53.378;-2.914;2022-08-01T07:43:02;4.72;;;2.40;;
74215;SDS011;62577;53.378;-2.914;2022-08-01T07:45:29;7.22;;;2.53;;
74215;SDS011;62577;53.378;-2.914;2022-08-01T07:47:56;5.35;;;2.97;;
74215;SDS011;62577;53.378;-2.914;2022-08-01T07:50:22;4.72;;;2.22;;
74215;SDS011;62577;53.378;-2.914;2022-08-01T07:52:48;4.55;;;2.20;;
74215;SDS011;62577;53.378;-2.914;2022-08-01T07:55:14;4.03;;;2.17;;
74215;SDS011;62577;53.378;-2.914;2022-08-01T07:57:40;4.88;;;2.53;;
74215;SDS011;62577;53.378;-2.914;2022-08-01T08:00:06;3.95;;;2.15;;
74215;SDS011;62577;53.378;-2.914;2022-08-01T08:02:34;4.40;;;1.95;;
74215;SDS011;62577;53.378;-2.914;2022-08-01T08:05:00;4.88;;;2.00;;
74215;SDS011;62577;53.378;-2.914;2022-08-01T08:07:26;4.57;;;1.95;;
74215;SDS011;62577;53.378;-2.914;2022-08-01T08:09:52;4.28;;;2.30;;
74215;SDS011;62577;53.378;-2.914;2022-08-01T08:12:18;9.15;;;2.88;;
74215;SDS011;62577;53.378;-2.914;2022-08-01T08:14:44;4.18;;;2.45;;
74215;SDS011;62577;53.378;-2.914;2022-08-01T08:17:10;5.60;;;2.58;;
74215;SDS011;62577;53.378;-2.914;2022-08-01T08:19:36;5.03;;;2.70;;
74215;SDS011;62577;53.378;-2.914;2022-08-01T08:22:04;4.18;;;2.25;;
74215;SDS011;62577;53.378;-2.914;2022-08-01T08:24:30;5.88;;;2.67;;
74215;SDS011;62577;53.378;-2.914;2022-08-01T08:26:57;4.88;;;2.05;;
74215;SDS011;62577;53.378;-2.914;2022-08-01T08:29:23;7.85;;;3.28;;
74215;SDS011;62577;53.378;-2.914;2022-08-01T08:31:51;5.15;;;2.10;;
74215;SDS011;62577;53.378;-2.914;2022-08-01T08:34:17;6.03;;;2.58;;
74215;SDS011;62577;53.378;-2.914;2022-08-01T08:36:43;3.95;;;2.17;;
74215;SDS011;62577;53.378;-2.914;2022-08-01T08:39:09;9.00;;;2.67;;
74215;SDS011;62577;53.378;-2.914;2022-08-01T08:41:35;7.28;;;2.53;;
74215;SDS011;62577;53.378;-2.914;2022-08-01T08:44:03;5.82;;;2.53;;
74215;SDS011;62577;53.378;-2.914;2022-08-01T08:46:29;6.80;;;2.40;;
74215;SDS011;62577;53.378;-2.914;2022-08-01T08:48:57;4.57;;;1.55;;
74215;SDS011;62577;53.378;-2.914;2022-08-01T08:51:24;3.35;;;1.60;;
74215;SDS011;62577;53.378;-2.914;2022-08-01T08:53:52;6.88;;;2.13;;
74215;SDS011;62577;53.378;-2.914;2022-08-01T08:56:19;4.00;;;1.75;;
74215;SDS011;62577;53.378;-2.914;2022-08-01T08:58:46;5.85;;;1.95;;
74215;SDS011;62577;53.378;-2.914;2022-08-01T09:01:12;4.30;;;1.92;;
74215;SDS011;62577;53.378;-2.914;2022-08-01T09:03:39;4.45;;;1.88;;
74215;SDS011;62577;53.378;-2.914;2022-08-01T09:06:05;4.07;;;1.80;;
74215;SDS011;62577;53.378;-2.914;2022-08-01T09:08:32;4.05;;;1.50;;
74215;SDS011;62577;53.378;-2.914;2022-08-01T09:10:58;5.75;;;1.98;;
74215;SDS011;62577;53.378;-2.914;2022-08-01T09:13:24;4.22;;;1.58;;
74215;SDS011;62577;53.378;-2.914;2022-08-01T09:15:51;5.63;;;1.98;;
74215;SDS011;62577;53.378;-2.914;2022-08-01T09:21:17;4.18;;;1.48;;
74215;SDS011;62577;53.378;-2.914;2022-08-01T09:23:47;4.70;;;1.63;;
74215;SDS011;62577;53.378;-2.914;2022-08-01T09:26:18;3.90;;;1.50;;
74215;SDS011;62577;53.378;-2.914;2022-08-01T09:28:46;2.70;;;1.45;;
74215;SDS011;62577;53.378;-2.914;2022-08-01T09:31:13;3.53;;;1.13;;
74215;SDS011;62577;53.378;-2.914;2022-08-01T09:33:50;3.55;;;1.40;;
74215;SDS011;62577;53.378;-2.914;2022-08-01T09:36:16;4.15;;;1.38;;
74215;SDS011;62577;53.378;-2.914;2022-08-01T09:38:42;3.72;;;1.75;;
74215;SDS011;62577;53.378;-2.914;2022-08-01T09:41:08;2.58;;;1.10;;
74215;SDS011;62577;53.378;-2.914;2022-08-01T09:43:36;3.97;;;1.25;;
74215;SDS011;62577;53.378;-2.914;2022-08-01T09:46:10;4.65;;;1.13;;
74215;SDS011;62577;53.378;-2.914;2022-08-01T09:48:37;2.83;;;0.90;;
74215;SDS011;62577;53.378;-2.914;2022-08-01T09:51:06;4.10;;;1.67;;
74215;SDS011;62577;53.378;-2.914;2022-08-01T09:53:43;5.82;;;2.25;;
74215;SDS011;62577;53.378;-2.914;2022-08-01T09:56:11;3.92;;;1.10;;
74215;SDS011;62577;53.378;-2.914;2022-08-01T09:58:56;3.83;;;1.20;;
74215;SDS011;62577;53.378;-2.914;2022-08-01T10:01:23;6.40;;;1.38;;
74215;SDS011;62577;53.378;-2.914;2022-08-01T10:06:30;2.55;;;1.40;;
74215;SDS011;62577;53.378;-2.914;2022-08-01T10:08:57;4.13;;;1.88;;
74215;SDS011;62577;53.378;-2.914;2022-08-01T10:11:23;1.73;;;1.27;;
74215;SDS011;62577;53.378;-2.914;2022-08-01T10:13:49;2.08;;;1.15;;
74215;SDS011;62577;53.378;-2.914;2022-08-01T10:16:16;3.35;;;1.42;;
74215;SDS011;62577;53.378;-2.914;2022-08-01T10:18:42;2.83;;;1.40;;
74215;SDS011;62577;53.378;-2.914;2022-08-01T10:21:10;2.08;;;1.30;;
74215;SDS011;62577;53.378;-2.914;2022-08-01T10:23:37;2.17;;;0.82;;
74215;SDS011;62577;53.378;-2.914;2022-08-01T10:26:06;7.10;;;6.28;;
74215;SDS011;62577;53.378;-2.914;2022-08-01T10:28:34;4.38;;;1.50;;
74215;SDS011;62577;53.378;-2.914;2022-08-01T10:31:01;1.38;;;1.02;;
74215;SDS011;62577;53.378;-2.914;2022-08-01T10:33:28;2.70;;;1.17;;
74215;SDS011;62577;53.378;-2.914;2022-08-01T10:35:54;2.90;;;1.17;;
74215;SDS011;62577;53.378;-2.914;2022-08-01T10:38:20;1.77;;;1.13;;
74215;SDS011;62577;53.378;-2.914;2022-08-01T10:40:48;5.20;;;3.75;;
74215;SDS011;62577;53.378;-2.914;2022-08-01T10:43:14;3.15;;;2.38;;
74215;SDS011;62577;53.378;-2.914;2022-08-01T10:45:42;2.17;;;1.55;;
74215;SDS011;62577;53.378;-2.914;2022-08-01T10:50:39;2.00;;;1.15;;
74215;SDS011;62577;53.378;-2.914;2022-08-01T10:55:47;1.80;;;1.20;;
74215;SDS011;62577;53.378;-2.914;2022-08-01T10:58:13;3.30;;;1.50;;
74215;SDS011;62577;53.378;-2.914;2022-08-01T11:00:39;3.50;;;1.25;;
74215;SDS011;62577;53.378;-2.914;2022-08-01T11:03:05;2.47;;;1.20;;
74215;SDS011;62577;53.378;-2.914;2022-08-01T11:05:32;3.08;;;1.50;;
74215;SDS011;62577;53.378;-2.914;2022-08-01T11:08:00;22.20;;;3.80;;
74215;SDS011;62577;53.378;-2.914;2022-08-01T11:10:35;10.65;;;2.40;;
74215;SDS011;62577;53.378;-2.914;2022-08-01T11:13:03;2.38;;;1.08;;
74215;SDS011;62577;53.378;-2.914;2022-08-01T11:15:32;6.75;;;2.10;;
74215;SDS011;62577;53.378;-2.914;2022-08-01T11:17:59;4.15;;;2.92;;
74215;SDS011;62577;53.378;-2.914;2022-08-01T11:20:27;6.95;;;5.13;;
74215;SDS011;62577;53.378;-2.914;2022-08-01T11:33:15;3.65;;;1.20;;
74215;SDS011;62577;53.378;-2.914;2022-08-01T11:38:26;1.67;;;0.90;;
74215;SDS011;62577;53.378;-2.914;2022-08-01T11:41:12;1.92;;;0.93;;
74215;SDS011;62577;53.378;-2.914;2022-08-01T11:52:11;2.70;;;0.82;;
74215;SDS011;62577;53.378;-2.914;2022-08-01T11:54:47;3.95;;;1.25;;
74215;SDS011;62577;53.378;-2.914;2022-08-01T11:57:21;3.90;;;1.38;;
74215;SDS011;62577;53.378;-2.914;2022-08-01T11:59:48;2.08;;;1.15;;
74215;SDS011;62577;53.378;-2.914;2022-08-01T12:02:36;2.78;;;1.33;;
74215;SDS011;62577;53.378;-2.914;2022-08-01T12:05:07;2.10;;;1.10;;
74215;SDS011;62577;53.378;-2.914;2022-08-01T12:07:35;1.27;;;1.00;;
74215;SDS011;62577;53.378;-2.914;2022-08-01T12:12:28;2.08;;;1.20;;
74215;SDS011;62577;53.378;-2.914;2022-08-01T12:14:58;2.38;;;0.85;;
74215;SDS011;62577;53.378;-2.914;2022-08-01T12:17:28;5.22;;;1.27;;
74215;SDS011;62577;53.378;-2.914;2022-08-01T12:19:54;2.30;;;1.20;;
74215;SDS011;62577;53.378;-2.914;2022-08-01T12:22:21;1.40;;;0.93;;
74215;SDS011;62577;53.378;-2.914;2022-08-01T12:24:48;1.33;;;0.73;;
74215;SDS011;62577;53.378;-2.914;2022-08-01T12:27:23;2.53;;;1.08;;
74215;SDS011;62577;53.378;-2.914;2022-08-01T12:29:49;2.60;;;0.82;;
74215;SDS011;62577;53.378;-2.914;2022-08-01T12:32:22;1.45;;;0.70;;
74215;SDS011;62577;53.378;-2.914;2022-08-01T12:34:49;1.20;;;0.90;;
74215;SDS011;62577;53.378;-2.914;2022-08-01T12:37:15;3.65;;;3.25;;
74215;SDS011;62577;53.378;-2.914;2022-08-01T12:39:42;2.53;;;1.13;;
74215;SDS011;62577;53.378;-2.914;2022-08-01T12:42:09;1.50;;;1.05;;
74215;SDS011;62577;53.378;-2.914;2022-08-01T12:44:35;0.95;;;0.40;;
74215;SDS011;62577;53.378;-2.914;2022-08-01T12:47:02;1.45;;;0.73;;
74215;SDS011;62577;53.378;-2.914;2022-08-01T12:49:29;1.38;;;0.70;;
74215;SDS011;62577;53.378;-2.914;2022-08-01T12:51:55;2.55;;;1.00;;
74215;SDS011;62577;53.378;-2.914;2022-08-01T12:54:21;0.73;;;0.50;;
74215;SDS011;62577;53.378;-2.914;2022-08-01T12:56:50;1.63;;;0.85;;
74215;SDS011;62577;53.378;-2.914;2022-08-01T13:01:48;0.60;;;0.45;;
74215;SDS011;62577;53.378;-2.914;2022-08-01T13:04:14;1.23;;;0.70;;
74215;SDS011;62577;53.378;-2.914;2022-08-01T13:06:40;1.20;;;0.70;;
74215;SDS011;62577;53.378;-2.914;2022-08-01T13:09:09;0.77;;;0.57;;
74215;SDS011;62577;53.378;-2.914;2022-08-01T13:11:41;1.55;;;0.70;;
74215;SDS011;62577;53.378;-2.914;2022-08-01T13:14:08;2.08;;;0.70;;
74215;SDS011;62577;53.378;-2.914;2022-08-01T13:16:47;0.50;;;0.40;;
74215;SDS011;62577;53.378;-2.914;2022-08-01T13:19:13;1.15;;;0.60;;
74215;SDS011;62577;53.378;-2.914;2022-08-01T13:21:39;0.60;;;0.50;;
74215;SDS011;62577;53.378;-2.914;2022-08-01T13:24:22;2.58;;;0.60;;
74215;SDS011;62577;53.378;-2.914;2022-08-01T13:26:49;1.30;;;0.52;;
74215;SDS011;62577;53.378;-2.914;2022-08-01T13:29:17;0.90;;;0.55;;
74215;SDS011;62577;53.378;-2.914;2022-08-01T13:31:43;1.27;;;0.50;;
74215;SDS011;62577;53.378;-2.914;2022-08-01T13:34:10;0.95;;;0.43;;
74215;SDS011;62577;53.378;-2.914;2022-08-01T13:36:36;1.25;;;0.70;;
74215;SDS011;62577;53.378;-2.914;2022-08-01T13:39:03;2.10;;;1.02;;
74215;SDS011;62577;53.378;-2.914;2022-08-01T13:41:47;1.17;;;0.60;;
74215;SDS011;62577;53.378;-2.914;2022-08-01T13:44:14;1.83;;;0.80;;
74215;SDS011;62577;53.378;-2.914;2022-08-01T13:46:40;1.90;;;0.80;;
74215;SDS011;62577;53.378;-2.914;2022-08-01T13:49:07;1.17;;;0.73;;
74215;SDS011;62577;53.378;-2.914;2022-08-01T13:51:34;1.42;;;0.55;;
74215;SDS011;62577;53.378;-2.914;2022-08-01T13:54:01;1.65;;;0.70;;
74215;SDS011;62577;53.378;-2.914;2022-08-01T13:56:27;2.65;;;0.70;;
74215;SDS011;62577;53.378;-2.914;2022-08-01T13:58:54;1.65;;;0.52;;
74215;SDS011;62577;53.378;-2.914;2022-08-01T14:01:20;1.13;;;0.65;;
74215;SDS011;62577;53.378;-2.914;2022-08-01T14:03:46;1.35;;;0.60;;
74215;SDS011;62577;53.378;-2.914;2022-08-01T14:06:12;3.00;;;0.80;;
74215;SDS011;62577;53.378;-2.914;2022-08-01T14:08:42;1.52;;;0.88;;
74215;SDS011;62577;53.378;-2.914;2022-08-01T14:11:08;1.13;;;0.70;;
74215;SDS011;62577;53.378;-2.914;2022-08-01T14:13:34;3.42;;;0.77;;
74215;SDS011;62577;53.378;-2.914;2022-08-01T14:16:03;2.33;;;1.20;;
74215;SDS011;62577;53.378;-2.914;2022-08-01T14:18:29;2.63;;;0.65;;
74215;SDS011;62577;53.378;-2.914;2022-08-01T14:20:55;3.08;;;0.70;;
74215;SDS011;62577;53.378;-2.914;2022-08-01T14:23:21;1.17;;;0.80;;
74215;SDS011;62577;53.378;-2.914;2022-08-01T14:25:47;1.58;;;0.68;;
74215;SDS011;62577;53.378;-2.914;2022-08-01T14:28:13;1.20;;;0.70;;
74215;SDS011;62577;53.378;-2.914;2022-08-01T14:30:39;1.75;;;0.85;;
74215;SDS011;62577;53.378;-2.914;2022-08-01T14:33:11;1.50;;;0.70;;
74215;SDS011;62577;53.378;-2.914;2022-08-01T14:35:37;2.13;;;0.80;;
74215;SDS011;62577;53.378;-2.914;2022-08-01T14:38:03;0.73;;;0.63;;
74215;SDS011;62577;53.378;-2.914;2022-08-01T14:40:29;3.35;;;1.00;;
74215;SDS011;62577;53.378;-2.914;2022-08-01T14:42:55;3.00;;;1.02;;
74215;SDS011;62577;53.378;-2.914;2022-08-01T14:45:22;0.77;;;0.52;;
74215;SDS011;62577;53.378;-2.914;2022-08-01T14:47:48;1.45;;;0.93;;
74215;SDS011;62577;53.378;-2.914;2022-08-01T14:50:14;3.17;;;0.65;;
74215;SDS011;62577;53.378;-2.914;2022-08-01T14:52:41;2.35;;;0.82;;
74215;SDS011;62577;53.378;-2.914;2022-08-01T14:55:08;0.77;;;0.60;;
74215;SDS011;62577;53.378;-2.914;2022-08-01T14:57:35;1.20;;;0.80;;
74215;SDS011;62577;53.378;-2.914;2022-08-01T15:00:02;1.83;;;0.70;;
74215;SDS011;62577;53.378;-2.914;2022-08-01T15:02:28;2.70;;;1.20;;
74215;SDS011;62577;53.378;-2.914;2022-08-01T15:04:54;1.58;;;0.85;;
74215;SDS011;62577;53.378;-2.914;2022-08-01T15:07:20;2.60;;;0.80;;
74215;SDS011;62577;53.378;-2.914;2022-08-01T15:09:46;1.15;;;0.73;;
74215;SDS011;62577;53.378;-2.914;2022-08-01T15:12:12;1.55;;;0.65;;
74215;SDS011;62577;53.378;-2.914;2022-08-01T15:14:39;1.02;;;0.52;;
74215;SDS011;62577;53.378;-2.914;2022-08-01T15:19:40;2.80;;;0.57;;
74215;SDS011;62577;53.378;-2.914;2022-08-01T15:22:06;1.42;;;0.75;;